Time;durP1;ratioP1;P1;durP2;ratioP2;P2;SDS_P1;SDS_P2;PMS_P1;PMS_P2;Temp;Humidity;BMP_temperature;BMP_pressure;BME280_temperature;BME280_humidity;BME280_pressure;Samples;Min_cycle;Max_cycle;Signal;HPM_P1;HPM_P2
2022/11/08 00:02:05;;;;;;;26.50;13.03;;;;;;;7.17;100.00;99984.41;4185231;28;20517;-72
2022/11/08 00:04:33;;;;;;;28.60;12.60;;;;;;;7.19;100.00;99985.13;4178309;28;20230;-73
2022/11/08 00:15:15;;;;;;;23.83;12.27;;;;;;;7.14;100.00;99978.53;4182153;28;20335;-70
2022/11/08 00:17:41;;;;;;;27.47;13.20;;;;;;;7.18;100.00;99982.59;4162833;28;20586;-69
2022/11/08 00:20:09;;;;;;;25.63;12.63;;;;;;;7.26;100.00;99992.50;4172620;28;21194;-69
2022/11/08 00:22:35;;;;;;;24.57;12.23;;;;;;;7.27;100.00;99988.91;4171168;28;20631;-68
2022/11/08 00:25:02;;;;;;;22.37;12.00;;;;;;;7.30;100.00;99985.97;4168567;28;20331;-69
2022/11/08 00:27:28;;;;;;;23.53;11.97;;;;;;;7.37;100.00;99984.47;4173636;28;20283;-69
2022/11/08 00:29:54;;;;;;;30.43;12.87;;;;;;;7.33;100.00;99983.91;4157382;28;20251;-70
2022/11/08 00:32:23;;;;;;;24.93;13.23;;;;;;;7.38;100.00;99989.63;4185599;28;20277;-69
2022/11/08 00:34:51;;;;;;;23.67;12.43;;;;;;;7.29;100.00;99986.97;4174683;28;20851;-71
2022/11/08 00:37:19;;;;;;;27.97;14.37;;;;;;;7.33;100.00;99983.91;4178880;28;21275;-71
2022/11/08 00:39:46;;;;;;;30.27;14.97;;;;;;;7.44;100.00;99990.88;4183045;28;20548;-69
2022/11/08 00:42:12;;;;;;;27.00;13.53;;;;;;;7.55;100.00;99996.09;4141225;28;21370;-71
2022/11/08 00:44:39;;;;;;;27.50;13.30;;;;;;;7.55;100.00;99990.78;4187053;28;20868;-69
2022/11/08 00:47:05;;;;;;;23.67;11.93;;;;;;;7.65;100.00;99985.50;4179247;28;20237;-70
2022/11/08 00:49:32;;;;;;;28.00;11.87;;;;;;;7.61;100.00;99992.91;4177001;28;21895;-68
2022/11/08 00:51:59;;;;;;;22.27;11.47;;;;;;;7.69;100.00;99986.91;4178592;28;22344;-70
2022/11/08 00:54:25;;;;;;;22.57;11.43;;;;;;;7.74;100.00;99986.50;4180291;28;20419;-69
2022/11/08 00:56:52;;;;;;;25.77;11.37;;;;;;;7.83;100.00;99996.25;4182773;28;20648;-68
2022/11/08 00:59:19;;;;;;;22.90;11.47;;;;;;;7.80;100.00;99988.59;4167755;28;20298;-69
2022/11/08 01:01:46;;;;;;;20.73;10.90;;;;;;;7.86;100.00;99990.69;4167237;28;22083;-71
2022/11/08 01:04:15;;;;;;;25.63;11.47;;;;;;;7.91;100.00;99985.78;4168910;28;20234;-71
2022/11/08 01:06:42;;;;;;;20.33;10.97;;;;;;;7.87;100.00;99992.38;4178148;28;20391;-70
2022/11/08 01:09:09;;;;;;;23.33;10.37;;;;;;;7.83;100.00;99983.03;4162059;28;20822;-70
2022/11/08 01:11:36;;;;;;;20.80;10.27;;;;;;;7.95;100.00;99989.84;4185854;28;20906;-73
2022/11/08 01:14:03;;;;;;;21.27;10.23;;;;;;;7.96;100.00;99985.38;4163544;28;21661;-70
2022/11/08 01:16:31;;;;;;;27.13;12.27;;;;;;;7.85;100.00;99983.72;4180542;28;22670;-71
2022/11/08 01:18:58;;;;;;;20.07;10.30;;;;;;;7.95;100.00;99979.25;4167662;28;20232;-70
2022/11/08 01:21:25;;;;;;;22.77;10.47;;;;;;;7.97;100.00;99985.25;4171365;28;22839;-70
2022/11/08 01:23:53;;;;;;;22.40;11.20;;;;;;;7.90;100.00;99980.66;4172636;28;20881;-70
2022/11/08 01:26:22;;;;;;;22.40;10.10;;;;;;;8.06;100.00;99975.63;4167086;28;20944;-68
2022/11/08 01:28:49;;;;;;;21.00;10.80;;;;;;;8.09;100.00;99979.81;4180467;28;20632;-69
2022/11/08 01:31:18;;;;;;;20.60;10.07;;;;;;;8.13;100.00;99986.53;4167287;28;20243;-68
2022/11/08 01:33:45;;;;;;;19.30;10.17;;;;;;;8.18;100.00;99976.31;4173228;28;21318;-69
2022/11/08 01:36:19;;;;;;;25.63;10.47;;;;;;;8.19;100.00;99976.19;4173810;28;20501;-69
2022/11/08 01:38:46;;;;;;;27.30;11.23;;;;;;;8.14;100.00;99977.56;4178958;28;20230;-69
2022/11/08 01:41:14;;;;;;;21.50;10.47;;;;;;;8.20;100.00;99977.03;4173130;28;20242;-70
2022/11/08 01:43:43;;;;;;;26.27;10.77;;;;;;;8.24;100.00;99970.44;4180492;28;21089;-68
2022/11/08 01:46:22;;;;;;;19.17;10.47;;;;;;;8.16;100.00;99976.47;4179065;28;20430;-69
2022/11/08 01:48:54;;;;;;;22.73;11.67;;;;;;;8.22;100.00;99975.91;4164329;28;20238;-73
2022/11/08 01:51:26;;;;;;;21.07;9.97;;;;;;;8.24;100.00;99978.41;4166314;28;20270;-71
2022/11/08 01:53:53;;;;;;;20.40;10.17;;;;;;;8.28;100.00;99979.78;4156814;28;21377;-73
2022/11/08 01:56:20;;;;;;;20.47;10.37;;;;;;;8.29;100.00;99978.84;4175218;28;20236;-72
2022/11/08 01:58:48;;;;;;;21.97;10.73;;;;;;;8.30;100.00;99980.50;4171697;28;21108;-72
2022/11/08 02:01:14;;;;;;;20.87;9.83;;;;;;;8.25;100.00;99977.44;4173294;28;20560;-70
2022/11/08 02:03:41;;;;;;;20.27;9.53;;;;;;;8.22;100.00;99975.91;4161649;28;23480;-71
2022/11/08 02:06:08;;;;;;;20.43;10.33;;;;;;;8.24;100.00;99973.97;4174951;28;20237;-72
2022/11/08 02:08:38;;;;;;;17.73;9.93;;;;;;;8.30;100.00;99972.53;4176324;28;23117;-72
2022/11/08 02:11:06;;;;;;;20.80;9.97;;;;;;;8.27;100.00;99980.78;4159041;28;20277;-70
2022/11/08 02:13:34;;;;;;;23.97;9.60;;;;;;;8.23;100.00;99979.38;4167363;28;20792;-73
2022/11/08 02:16:01;;;;;;;21.40;9.90;;;;;;;8.24;100.00;99965.16;4175332;28;20446;-73
2022/11/08 02:18:29;;;;;;;22.80;10.37;;;;;;;8.28;100.00;99969.19;4173083;28;20242;-72
2022/11/08 02:21:16;;;;;;;19.63;9.20;;;;;;;8.22;100.00;99964.47;4171473;28;20527;-71
2022/11/08 02:23:44;;;;;;;22.60;10.33;;;;;;;8.26;100.00;99973.78;4172335;28;20854;-70
2022/11/08 02:26:11;;;;;;;21.57;9.83;;;;;;;8.29;100.00;99975.31;4184063;28;20279;-71
2022/11/08 02:28:42;;;;;;;19.70;9.10;;;;;;;8.42;100.00;99981.19;4172043;28;20317;-72
2022/11/08 02:31:09;;;;;;;22.57;10.33;;;;;;;8.22;100.00;99969.78;4171486;28;20421;-71
2022/11/08 02:33:36;;;;;;;21.63;10.33;;;;;;;8.28;100.00;99974.50;4184789;28;20242;-74
2022/11/08 02:36:05;;;;;;;18.20;9.53;;;;;;;8.17;100.00;99966.69;4178210;28;20238;-71
2022/11/08 02:38:33;;;;;;;21.43;10.20;;;;;;;8.24;100.00;99965.16;4165692;28;20458;-72
2022/11/08 02:41:00;;;;;;;25.30;11.20;;;;;;;8.23;100.00;99969.63;4190256;28;20703;-75
2022/11/08 02:43:26;;;;;;;20.30;10.00;;;;;;;8.28;100.00;99971.84;4173037;28;20296;-73
2022/11/08 02:45:53;;;;;;;24.77;10.47;;;;;;;8.25;100.00;99961.53;4167315;28;20237;-72
2022/11/08 02:48:19;;;;;;;18.90;11.07;;;;;;;8.21;100.00;99965.44;4172106;28;22955;-73
2022/11/08 02:50:46;;;;;;;23.60;10.30;;;;;;;8.26;100.00;99968.50;4179044;28;20249;-70
2022/11/08 02:53:13;;;;;;;24.13;9.83;;;;;;;8.19;100.00;99968.25;4167504;28;20231;-74
2022/11/08 02:55:39;;;;;;;21.80;10.20;;;;;;;8.11;100.00;99967.25;4174996;28;20456;-70
2022/11/08 02:58:06;;;;;;;20.43;10.43;;;;;;;8.15;100.00;99968.66;4181785;28;20239;-72
2022/11/08 03:00:33;;;;;;;20.50;10.03;;;;;;;8.03;100.00;99971.47;4174081;28;20237;-72
2022/11/08 03:02:59;;;;;;;21.23;10.43;;;;;;;8.16;100.00;99970.31;4181827;28;25636;-70
2022/11/08 03:05:27;;;;;;;20.63;10.83;;;;;;;8.11;100.00;99965.44;4187220;28;20911;-73
2022/11/08 03:07:54;;;;;;;24.43;10.40;;;;;;;8.15;100.00;99972.16;4158019;28;23589;-72
2022/11/08 03:10:22;;;;;;;18.67;10.00;;;;;;;8.20;100.00;99971.72;4172407;28;21028;-73
2022/11/08 03:13:00;;;;;;;22.97;10.73;;;;;;;8.11;100.00;99978.69;4175095;28;20230;-70
2022/11/08 03:15:27;;;;;;;20.67;10.10;;;;;;;8.13;100.00;99975.91;4148686;28;20352;-71
2022/11/08 03:17:55;;;;;;;23.13;10.70;;;;;;;8.14;100.00;99978.41;4176043;28;20400;-70
2022/11/08 03:20:22;;;;;;;19.80;10.37;;;;;;;8.03;100.00;99971.47;4165167;28;21192;-68
2022/11/08 03:22:58;;;;;;;26.30;10.30;;;;;;;8.14;100.00;99977.56;4182186;28;20396;-68
2022/11/08 03:25:25;;;;;;;19.67;9.97;;;;;;;8.10;100.00;99974.38;4171417;28;20234;-69
2022/11/08 03:27:51;;;;;;;20.03;10.10;;;;;;;8.11;100.00;99983.16;4179459;28;20336;-68
2022/11/08 03:30:18;;;;;;;21.97;10.93;;;;;;;8.14;100.00;99977.56;4169028;28;22990;-67
2022/11/08 03:32:48;;;;;;;18.67;9.77;;;;;;;8.03;100.00;99979.41;4175208;28;20441;-67
2022/11/08 03:35:15;;;;;;;21.17;11.03;;;;;;;8.03;100.00;99981.22;4182294;28;20242;-69
2022/11/08 03:37:48;;;;;;;23.13;10.80;;;;;;;8.08;100.00;99978.13;4184775;28;20400;-67
2022/11/08 03:40:15;;;;;;;22.27;10.10;;;;;;;8.08;100.00;99989.59;4181918;28;20568;-69
2022/11/08 03:42:41;;;;;;;20.90;11.07;;;;;;;7.99;100.00;99980.66;4183889;28;20248;-68
2022/11/08 03:45:08;;;;;;;21.07;10.80;;;;;;;7.91;100.00;99984.97;4184375;28;20242;-68
2022/11/08 03:47:42;;;;;;;22.40;10.83;;;;;;;7.85;100.00;99994.31;4180808;28;20281;-68
2022/11/08 03:50:09;;;;;;;26.67;10.87;;;;;;;7.79;100.00;99997.50;4184695;28;20263;-68
2022/11/08 03:52:40;;;;;;;27.77;11.23;;;;;;;7.77;100.00;99989.72;4180686;28;20324;-70
2022/11/08 03:55:07;;;;;;;24.53;12.60;;;;;;;7.73;100.00;99996.25;4182087;28;20811;-72
2022/11/08 03:57:34;;;;;;;21.87;11.00;;;;;;;7.73;100.00;99992.78;4189397;28;20415;-70
2022/11/08 04:00:00;;;;;;;24.77;11.80;;;;;;;7.62;100.00;99993.72;4181129;28;22029;-70
2022/11/08 04:02:28;;;;;;;21.70;11.10;;;;;;;7.51;100.00;99996.50;4182298;28;20244;-70
2022/11/08 04:04:54;;;;;;;22.97;11.13;;;;;;;7.54;100.00;99991.78;4183060;28;20238;-70
2022/11/08 04:07:21;;;;;;;32.13;11.37;;;;;;;7.72;100.00;99985.78;4185818;28;20243;-69
2022/11/08 04:09:47;;;;;;;25.20;11.60;;;;;;;7.72;100.00;99983.16;4185944;28;20751;-68
2022/11/08 04:15:14;;;;;;;26.77;11.30;;;;;;;7.70;100.00;99977.16;4169077;28;20233;-72
2022/11/08 04:23:33;;;;;;;26.03;11.63;;;;;;;7.79;100.00;99984.25;4186251;28;20304;-69
2022/11/08 04:26:03;;;;;;;27.53;12.60;;;;;;;7.68;100.00;99976.44;4190586;28;20311;-70
2022/11/08 04:28:31;;;;;;;22.97;11.70;;;;;;;7.78;100.00;99974.66;4181507;28;20424;-70
2022/11/08 04:31:01;;;;;;;29.33;11.47;;;;;;;7.83;100.00;99972.41;4185176;28;20375;-70
2022/11/08 04:33:28;;;;;;;23.80;12.50;;;;;;;7.77;100.00;99971.19;4170633;28;20284;-70
2022/11/08 04:35:55;;;;;;;24.33;12.33;;;;;;;7.69;100.00;99978.97;4178613;28;20305;-70
2022/11/08 04:38:21;;;;;;;26.30;12.10;;;;;;;7.70;100.00;99971.84;4176442;28;20249;-69
2022/11/08 04:40:48;;;;;;;26.67;13.00;;;;;;;7.57;100.00;99977.41;4176490;28;21088;-70
2022/11/08 04:43:14;;;;;;;28.27;13.33;;;;;;;7.53;100.00;99968.06;4175346;28;22621;-69
2022/11/08 04:45:40;;;;;;;25.57;13.00;;;;;;;7.50;100.00;99968.34;4178232;28;20233;-69
2022/11/08 04:48:07;;;;;;;26.27;12.73;;;;;;;7.46;100.00;99964.28;4178964;28;22928;-70
2022/11/08 04:50:33;;;;;;;29.53;13.50;;;;;;;7.54;100.00;99970.59;4186881;28;20246;-68
2022/11/08 04:53:00;;;;;;;27.53;13.07;;;;;;;7.41;100.00;99980.59;4182706;28;25060;-70
2022/11/08 04:55:26;;;;;;;23.33;12.27;;;;;;;7.48;100.00;99973.78;4180472;28;20225;-69
2022/11/08 04:57:56;;;;;;;31.10;13.43;;;;;;;7.59;100.00;99978.13;4181548;28;20427;-69
2022/11/08 05:00:23;;;;;;;29.17;13.33;;;;;;;7.49;100.00;99972.81;4172764;28;22289;-69
2022/11/08 05:02:50;;;;;;;26.20;13.33;;;;;;;7.50;100.00;99973.66;4174151;28;20417;-67
2022/11/08 05:05:16;;;;;;;27.50;12.53;;;;;;;7.46;100.00;99965.13;4176522;28;20312;-67
2022/11/08 05:07:43;;;;;;;25.47;11.37;;;;;;;7.52;100.00;99971.69;4174733;28;20242;-70
2022/11/08 05:10:09;;;;;;;35.07;13.43;;;;;;;7.42;100.00;99976.13;4169717;28;20851;-71
2022/11/08 05:12:36;;;;;;;26.27;13.63;;;;;;;7.37;100.00;99968.59;4176117;28;20885;-69
2022/11/08 05:15:03;;;;;;;25.90;12.40;;;;;;;7.44;100.00;99979.47;4179832;28;20276;-68
2022/11/08 05:17:29;;;;;;;31.07;13.60;;;;;;;7.40;100.00;99973.63;4176733;28;20670;-67
2022/11/08 05:25:26;;;;;;;28.60;13.27;;;;;;;7.39;100.00;99974.59;4178448;28;20241;-69
2022/11/08 05:27:53;;;;;;;30.63;14.07;;;;;;;7.46;100.00;99983.66;4179733;28;21713;-73
2022/11/08 05:30:19;;;;;;;27.83;14.10;;;;;;;7.38;100.00;99986.16;4165086;28;20297;-69
2022/11/08 05:32:49;;;;;;;28.40;13.97;;;;;;;7.39;100.00;99993.94;4179737;28;20416;-68
2022/11/08 05:35:17;;;;;;;30.73;13.70;;;;;;;7.34;100.00;99996.16;4161476;29;20326;-69
2022/11/08 05:37:44;;;;;;;28.93;13.13;;;;;;;7.35;100.00;99994.34;4161982;29;20466;-68
2022/11/08 05:40:10;;;;;;;26.27;13.23;;;;;;;7.33;100.00;99996.31;4158492;28;20266;-68
2022/11/08 05:42:37;;;;;;;24.83;13.43;;;;;;;7.31;100.00;99992.97;4186834;29;20241;-67
2022/11/08 05:45:04;;;;;;;26.13;13.40;;;;;;;7.32;100.00;99998.09;4222875;29;20246;-68
2022/11/08 05:47:35;;;;;;;28.13;13.77;;;;;;;7.29;100.00;100001.03;4177164;29;20992;-70
2022/11/08 05:50:01;;;;;;;35.20;13.77;;;;;;;7.35;100.00;99997.84;4177077;28;20254;-71
2022/11/08 05:52:31;;;;;;;32.40;13.17;;;;;;;7.33;100.00;99998.97;4179510;29;20374;-76
2022/11/08 05:54:57;;;;;;;32.90;14.47;;;;;;;7.32;100.00;100007.88;4185716;29;20576;-73
2022/11/08 05:57:24;;;;;;;27.97;13.23;;;;;;;7.37;100.00;99989.75;4166850;29;21181;-70
2022/11/08 05:59:50;;;;;;;29.50;13.73;;;;;;;7.37;100.00;99997.72;4196857;29;20832;-73
2022/11/08 06:02:17;;;;;;;23.30;13.10;;;;;;;7.39;100.00;99993.94;4267753;29;20314;-76
2022/11/08 06:04:44;;;;;;;29.70;13.80;;;;;;;7.40;100.00;100000.94;4267855;29;20225;-69
2022/11/08 06:07:11;;;;;;;29.17;14.47;;;;;;;7.44;100.00;100001.47;4305000;29;20320;-75
2022/11/08 06:09:38;;;;;;;23.13;12.43;;;;;;;7.40;100.00;100000.09;4322578;29;20661;-75
2022/11/08 06:12:06;;;;;;;28.73;13.03;;;;;;;7.46;100.00;99996.91;4320316;28;20298;-70
2022/11/08 06:14:32;;;;;;;29.77;13.20;;;;;;;7.53;100.00;100000.66;4268440;29;20682;-69
2022/11/08 06:16:59;;;;;;;34.10;13.33;;;;;;;7.52;100.00;100006.94;4288644;29;21185;-71
2022/11/08 06:19:26;;;;;;;28.80;13.83;;;;;;;7.45;100.00;100002.34;4320495;29;20579;-74
2022/11/08 06:21:53;;;;;;;29.53;13.03;;;;;;;7.56;100.00;99994.25;4286895;29;20563;-71
2022/11/08 06:24:20;;;;;;;27.73;13.43;;;;;;;7.53;100.00;99999.84;4318427;29;20299;-69
2022/11/08 06:26:47;;;;;;;23.83;12.17;;;;;;;7.61;100.00;100006.13;4216786;29;20233;-75
2022/11/08 06:29:13;;;;;;;30.73;13.53;;;;;;;7.61;100.00;100008.78;4237576;29;20673;-73
2022/11/08 06:31:40;;;;;;;28.37;12.90;;;;;;;7.77;100.00;100010.91;4213184;28;21901;-69
2022/11/08 06:34:08;;;;;;;23.73;12.43;;;;;;;7.87;100.00;100013.56;4199497;28;20240;-73
2022/11/08 06:36:35;;;;;;;27.93;12.70;;;;;;;7.87;100.00;100020.69;4172186;29;20238;-74
2022/11/08 06:39:02;;;;;;;29.63;12.47;;;;;;;7.93;100.00;100020.09;4205191;29;20245;-70
2022/11/08 06:41:28;;;;;;;28.80;12.77;;;;;;;8.08;100.00;100015.22;4159261;29;20554;-69
2022/11/08 06:43:55;;;;;;;26.60;12.47;;;;;;;8.11;100.00;100007.84;4175650;28;20482;-71
2022/11/08 06:46:22;;;;;;;29.77;13.53;;;;;;;8.13;100.00;100013.84;4167536;29;20497;-75
2022/11/08 06:48:49;;;;;;;29.73;13.10;;;;;;;8.20;100.00;100022.91;4156342;29;25136;-70
2022/11/08 06:51:15;;;;;;;31.77;13.67;;;;;;;8.13;100.00;100016.50;4185785;29;21619;-72
2022/11/08 06:53:42;;;;;;;26.07;12.70;;;;;;;8.25;100.00;100009.25;4194648;29;20697;-71
2022/11/08 06:56:09;;;;;;;37.70;13.67;;;;;;;8.25;100.00;100014.53;4180349;29;22631;-72
2022/11/08 06:58:36;;;;;;;26.27;11.70;;;;;;;8.35;100.00;100025.13;4163395;29;21230;-72
2022/11/08 07:01:04;;;;;;;27.23;12.90;;;;;;;8.43;100.00;100028.78;4175471;29;20238;-76
2022/11/08 07:03:32;;;;;;;23.60;12.00;;;;;;;8.41;100.00;100033.41;4188881;29;20721;-68
2022/11/08 07:06:02;;;;;;;27.30;12.67;;;;;;;8.42;100.00;100029.75;4184391;29;20310;-74
2022/11/08 07:08:30;;;;;;;25.87;12.27;;;;;;;8.39;100.00;100037.97;4177568;29;20244;-73
2022/11/08 07:10:57;;;;;;;25.43;12.67;;;;;;;8.51;100.00;100032.56;4171614;29;20244;-69
2022/11/08 07:13:23;;;;;;;28.10;12.30;;;;;;;8.61;100.00;100038.66;4168723;29;20337;-71
2022/11/08 07:15:50;;;;;;;28.33;12.50;;;;;;;8.67;100.00;100043.41;4157136;29;21863;-74
2022/11/08 07:18:17;;;;;;;24.50;12.40;;;;;;;8.76;100.00;100042.56;4170665;29;21701;-73
2022/11/08 07:20:44;;;;;;;23.87;12.23;;;;;;;8.87;100.00;100047.72;4153811;29;22452;-71
2022/11/08 07:23:11;;;;;;;25.23;11.77;;;;;;;8.96;100.00;100043.34;4160900;29;20235;-65
2022/11/08 07:25:38;;;;;;;31.23;11.57;;;;;;;9.09;100.00;100043.03;4199436;28;20353;-72
2022/11/08 07:28:06;;;;;;;25.97;11.67;;;;;;;9.15;100.00;100050.41;4206124;29;27058;-72
2022/11/08 07:30:34;;;;;;;26.00;12.13;;;;;;;9.25;100.00;100053.88;4213673;29;20348;-71
2022/11/08 07:33:00;;;;;;;28.87;12.20;;;;;;;9.38;98.95;100061.50;4174722;29;20280;-73
2022/11/08 07:35:28;;;;;;;25.90;11.50;;;;;;;9.44;99.47;100062.75;4168192;29;20232;-74
2022/11/08 07:37:55;;;;;;;22.20;11.00;;;;;;;9.52;97.54;100061.00;4188385;29;20305;-72
2022/11/08 07:40:21;;;;;;;25.80;11.17;;;;;;;9.54;97.51;100060.88;4185229;29;20305;-74
2022/11/08 07:42:48;;;;;;;29.70;11.63;;;;;;;9.58;96.97;100056.94;4192885;29;20356;-70
2022/11/08 07:45:35;;;;;;;28.30;11.93;;;;;;;9.57;97.35;100057.06;4176125;29;22165;-69
2022/11/08 07:48:04;;;;;;;23.17;11.00;;;;;;;9.72;96.46;100067.06;4169329;29;20353;-71
2022/11/08 07:50:36;;;;;;;22.97;10.10;;;;;;;9.72;96.45;100066.22;4176745;29;20241;-76
2022/11/08 07:53:03;;;;;;;21.07;9.93;;;;;;;9.86;95.52;100062.25;4175590;29;20336;-72
2022/11/08 07:55:30;;;;;;;19.97;9.73;;;;;;;9.89;95.33;100051.28;4207488;28;20249;-72
2022/11/08 07:58:00;;;;;;;24.73;10.20;;;;;;;9.95;94.05;100061.34;4189612;29;20229;-79
2022/11/08 08:00:31;;;;;;;24.27;10.40;;;;;;;10.06;93.74;100055.78;4180100;28;21058;-76
2022/11/08 08:02:58;;;;;;;25.37;9.20;;;;;;;10.08;93.11;100056.47;4194332;29;21863;-76
2022/11/08 08:05:27;;;;;;;27.43;10.20;;;;;;;10.61;91.81;100057.47;4188446;29;20241;-74
2022/11/08 08:07:58;;;;;;;20.53;9.60;;;;;;;11.73;85.85;100059.25;4223869;28;20287;-77
2022/11/08 08:13:12;;;;;;;23.40;8.70;;;;;;;18.42;55.39;100106.66;4322064;27;20562;-80
2022/11/08 08:15:39;;;;;;;20.00;8.57;;;;;;;21.07;44.23;100115.00;4307303;27;20304;-74
2022/11/08 08:18:06;;;;;;;20.13;7.83;;;;;;;23.88;35.74;100123.53;4307083;28;20297;-80
2022/11/08 08:20:35;;;;;;;17.77;7.40;;;;;;;25.05;32.26;100124.00;4370950;27;21132;-76
2022/11/08 08:23:03;;;;;;;17.83;7.87;;;;;;;25.93;31.24;100134.28;4431087;27;20230;-74
2022/11/08 08:25:30;;;;;;;17.23;7.50;;;;;;;27.18;27.89;100147.81;4459949;28;20235;-74
2022/11/08 08:27:59;;;;;;;17.37;7.17;;;;;;;28.46;26.27;100142.16;4351607;27;22866;-74
2022/11/08 08:30:30;;;;;;;17.83;7.23;;;;;;;30.06;23.24;100141.72;4402816;27;20240;-73
2022/11/08 08:33:11;;;;;;;15.57;7.27;;;;;;;30.40;22.83;100144.59;4493942;27;20935;-75
2022/11/08 08:35:55;;;;;;;14.77;6.90;;;;;;;28.96;24.06;100132.38;4433766;28;20972;-77
2022/11/08 08:38:22;;;;;;;15.47;6.67;;;;;;;27.15;25.67;100115.56;4415575;28;20233;-70
2022/11/08 08:40:49;;;;;;;17.10;6.83;;;;;;;26.91;26.72;100115.94;4450762;28;20291;-73
2022/11/08 08:43:16;;;;;;;20.57;7.00;;;;;;;27.47;26.00;100125.63;4430022;28;20226;-74
2022/11/08 08:45:43;;;;;;;17.00;7.03;;;;;;;27.55;25.99;100127.84;4449690;28;20716;-77
2022/11/08 08:48:10;;;;;;;15.47;6.60;;;;;;;27.35;25.78;100126.66;4424836;28;20233;-73
2022/11/08 08:50:37;;;;;;;18.30;6.37;;;;;;;27.23;26.11;100123.31;4343275;28;20336;-71
2022/11/08 08:53:04;;;;;;;13.30;6.37;;;;;;;28.02;25.17;100126.19;4331281;28;20240;-73
2022/11/08 08:55:34;;;;;;;12.03;6.13;;;;;;;29.03;23.51;100139.22;4318717;28;20239;-74
2022/11/08 08:58:04;;;;;;;15.03;6.80;;;;;;;28.74;23.60;100135.38;4344652;28;20775;-78
2022/11/08 09:00:31;;;;;;;16.10;6.60;;;;;;;28.27;24.26;100128.19;4393164;28;23083;-73
2022/11/08 09:03:18;;;;;;;15.27;6.03;;;;;;;28.33;24.81;100140.75;4298086;28;20274;-77
2022/11/08 09:05:46;;;;;;;15.27;6.23;;;;;;;28.39;24.06;100129.56;4260927;28;22148;-80
2022/11/08 09:08:13;;;;;;;12.97;6.60;;;;;;;27.90;24.51;100131.88;4311940;28;20437;-76
2022/11/08 09:10:40;;;;;;;14.13;5.57;;;;;;;24.93;28.71;100106.94;4273576;28;21856;-80
2022/11/08 09:13:06;;;;;;;11.80;6.03;;;;;;;22.05;33.74;100090.81;4266125;28;20234;-75
2022/11/08 09:15:33;;;;;;;13.63;5.87;;;;;;;20.44;37.69;100077.19;4287221;28;22199;-76
2022/11/08 09:18:00;;;;;;;15.87;6.30;;;;;;;18.48;42.48;100062.75;4278648;28;22997;-73
2022/11/08 09:20:26;;;;;;;13.80;6.17;;;;;;;17.34;46.74;100057.97;4287089;28;22123;-75
2022/11/08 09:22:53;;;;;;;16.00;6.33;;;;;;;16.12;52.45;100051.00;4287904;28;20247;-69
2022/11/08 09:25:20;;;;;;;11.13;5.33;;;;;;;15.53;55.98;100051.94;4287366;28;20231;-77
2022/11/08 09:27:46;;;;;;;13.93;6.03;;;;;;;15.65;56.32;100057.66;4283526;28;20263;-72
2022/11/08 09:30:13;;;;;;;13.17;5.47;;;;;;;15.24;58.03;100046.56;4291603;28;21530;-76
2022/11/08 09:32:40;;;;;;;13.27;5.63;;;;;;;15.01;59.80;100046.66;4276469;28;21283;-77
2022/11/08 09:35:28;;;;;;;10.80;5.30;;;;;;;15.09;60.37;100054.63;4286741;28;20440;-75
2022/11/08 09:37:55;;;;;;;18.20;6.00;;;;;;;14.72;62.49;100054.47;4259027;28;20226;-77
2022/11/08 09:40:50;;;;;;;14.77;5.40;;;;;;;14.82;61.98;100054.22;4299283;28;20242;-70
2022/11/08 09:43:36;;;;;;;14.00;5.40;;;;;;;14.75;61.62;100050.63;4293143;28;20862;-74
2022/11/08 09:46:02;;;;;;;14.43;5.23;;;;;;;15.04;61.58;100044.44;4266783;28;20402;-73
2022/11/08 09:48:41;;;;;;;12.67;5.70;;;;;;;15.02;61.80;100043.78;4255494;28;20241;-73
2022/11/08 09:51:14;;;;;;;10.17;5.40;;;;;;;15.04;61.82;100051.66;4261335;28;20371;-75
2022/11/08 09:53:51;;;;;;;12.93;5.07;;;;;;;15.21;61.15;100047.78;4262156;28;20380;-70
2022/11/08 09:56:22;;;;;;;14.87;5.43;;;;;;;15.18;61.94;100038.25;4267910;28;20242;-73
2022/11/08 09:58:54;;;;;;;12.23;4.90;;;;;;;15.00;63.70;100045.81;4275297;28;20228;-71
2022/11/08 10:01:21;;;;;;;10.57;4.63;;;;;;;14.82;63.21;100039.97;4273066;28;23278;-69
2022/11/08 10:03:54;;;;;;;12.90;5.30;;;;;;;14.71;63.74;100031.38;4276224;28;20258;-71
2022/11/08 10:06:41;;;;;;;19.13;5.30;;;;;;;14.22;65.75;100038.97;4264995;28;21275;-72
2022/11/08 10:09:42;;;;;;;15.63;5.67;;;;;;;14.43;65.96;100038.31;4293166;28;20308;-77
2022/11/08 10:12:37;;;;;;;21.70;5.40;;;;;;;14.75;64.01;100035.38;4251308;28;20357;-70
2022/11/08 10:15:37;;;;;;;13.53;5.70;;;;;;;14.77;64.81;100030.66;4271869;28;20237;-73
2022/11/08 10:18:30;;;;;;;12.60;4.77;;;;;;;14.85;63.20;100034.28;4269806;28;20812;-71
2022/11/08 10:21:51;;;;;;;13.77;4.93;;;;;;;14.89;63.20;100031.06;4261871;28;20225;-75
2022/11/08 10:24:46;;;;;;;15.33;4.77;;;;;;;14.48;65.34;100026.03;4258508;28;20232;-73
2022/11/08 10:27:25;;;;;;;10.90;5.47;;;;;;;14.79;64.59;100033.13;4249202;28;20818;-70
2022/11/08 10:29:56;;;;;;;21.37;8.27;;;;;;;14.82;64.23;100029.25;4304075;28;20799;-69
2022/11/08 10:32:23;;;;;;;15.37;5.03;;;;;;;14.82;64.67;100031.94;4255063;28;20234;-71
2022/11/08 10:35:06;;;;;;;14.20;5.30;;;;;;;14.87;66.39;100025.03;4228383;28;20321;-69
2022/11/08 10:37:32;;;;;;;9.77;4.33;;;;;;;15.11;64.18;100023.94;4244495;28;20900;-76
2022/11/08 10:40:03;;;;;;;10.50;4.67;;;;;;;15.10;64.46;100030.31;4263550;28;21273;-71
2022/11/08 10:42:59;;;;;;;13.33;5.03;;;;;;;14.50;66.55;100017.81;4236534;28;20234;-71
2022/11/08 10:45:29;;;;;;;22.23;5.13;;;;;;;14.49;66.53;100016.13;4260736;28;20760;-80
2022/11/08 10:47:56;;;;;;;13.93;4.73;;;;;;;14.47;66.07;100008.31;4280942;28;21362;-77
2022/11/08 10:50:36;;;;;;;10.70;4.73;;;;;;;14.58;66.79;100007.06;4272700;28;23086;-74
2022/11/08 10:53:03;;;;;;;12.33;5.03;;;;;;;14.67;66.32;100003.28;4281517;28;20238;-74
2022/11/08 10:55:35;;;;;;;11.07;4.20;;;;;;;14.61;66.63;99997.81;4249368;28;21968;-71
2022/11/08 10:58:02;;;;;;;14.17;4.70;;;;;;;14.75;65.65;99999.72;4283126;28;22754;-76
2022/11/08 11:00:31;;;;;;;9.67;3.90;;;;;;;15.01;64.56;99998.41;4278559;28;23598;-72
2022/11/08 11:02:58;;;;;;;15.13;5.23;;;;;;;15.11;64.79;99994.47;4253809;28;22321;-71
2022/11/08 11:05:30;;;;;;;9.43;3.37;;;;;;;15.23;63.24;99997.50;4265246;28;20301;-73
2022/11/08 11:08:12;;;;;;;14.20;4.47;;;;;;;15.10;63.80;99995.50;4272773;28;22051;-75
2022/11/08 11:10:40;;;;;;;9.53;3.53;;;;;;;15.14;62.81;99993.25;4299599;28;20319;-73
2022/11/08 11:13:12;;;;;;;16.33;4.70;;;;;;;15.11;63.47;99993.63;4356042;28;20253;-75
2022/11/08 11:15:54;;;;;;;9.63;4.07;;;;;;;15.11;63.35;99986.41;4302910;28;20315;-74
2022/11/08 11:18:46;;;;;;;10.57;3.83;;;;;;;15.37;62.62;99987.78;4287269;28;20239;-77
2022/11/08 11:21:16;;;;;;;8.97;3.80;;;;;;;15.42;62.73;99982.69;4298160;28;22147;-81
2022/11/08 11:23:52;;;;;;;9.00;3.60;;;;;;;15.34;63.62;99983.63;4239594;28;20247;-71
2022/11/08 11:26:33;;;;;;;11.80;3.30;;;;;;;15.43;62.60;99981.69;4307363;28;20231;-77
2022/11/08 11:29:02;;;;;;;13.37;3.43;;;;;;;15.53;61.18;99984.88;4260074;28;20234;-76
2022/11/08 11:31:49;;;;;;;12.63;2.93;;;;;;;15.40;61.47;99971.31;4270768;28;20227;-74
2022/11/08 11:34:16;;;;;;;11.40;3.07;;;;;;;15.42;59.87;99988.03;4280254;28;20248;-75
2022/11/08 11:37:08;;;;;;;7.93;2.50;;;;;;;15.43;59.79;99979.00;4304762;28;20265;-72
2022/11/08 11:39:56;;;;;;;10.10;2.60;;;;;;;15.36;59.19;99981.59;4274426;28;22241;-72
2022/11/08 11:42:42;;;;;;;9.53;2.63;;;;;;;15.35;59.34;99979.09;4320766;28;20301;-72
2022/11/08 11:45:17;;;;;;;9.10;3.10;;;;;;;15.40;59.49;99984.72;4290637;28;21328;-73
2022/11/08 11:47:53;;;;;;;9.57;3.30;;;;;;;15.35;59.94;99987.97;4292479;28;20363;-79
2022/11/08 11:50:30;;;;;;;7.97;3.20;;;;;;;15.41;58.79;99989.06;4304230;28;20535;-71
2022/11/08 11:52:59;;;;;;;10.57;3.13;;;;;;;15.30;59.74;99981.50;4261661;28;20395;-71
2022/11/08 11:55:41;;;;;;;11.70;2.93;;;;;;;15.35;59.85;99984.44;4257332;28;20233;-70